100LL.CA
Aviation Fuel Pricing for Canadians
Please upgrade your browser - Tested with IE9, FireFox, Chrome, Safari

Fuel Airports Other Help
Prices Economy Info List METAR/TAF Kneeboard Help

Reference Airport: MACKENZIE, BC
N 55 17 58  W 123 08 00
Provinces to show:

CYZY MACKENZIE, BC
WEATHER
METARCYZY 230300Z AUTO 16009KT 9SM CLR M01/M03 A3012 RMK ICE INTMT SLP240
TAFTAF AMD CYZY 230209Z 2302/2309 15010G20KT P6SM BKN020 TEMPO 2302/2309 SCT020 RMK FCST BASED ON AUTO OBS. NXT FCST BY 230700Z
OTHER SITES

FlightAware

FltPlan

Google Maps

SkyVector
FUEL
FBO 100LL
member
100LL
public
JETA MOGAS
District of Mackenzie (2023-12-08)2.7602.340
Canada Flight Supplement - CYZY
(opens in new tab/window)


Please Send Updates!

Desktop Version ]  [ Mobile Version ]  [ Disclaimer ]